sensor_id;sensor_type;location;lat;lon;timestamp;P1;durP1;ratioP1;P2;durP2;ratioP2
65018;SDS011;66069;51.164;-114.452;2023-10-09T00:02:11;2.20;;;1.00;;
65018;SDS011;66069;51.164;-114.452;2023-10-09T00:04:38;2.03;;;0.68;;
65018;SDS011;66069;51.164;-114.452;2023-10-09T00:07:07;4.07;;;1.20;;
65018;SDS011;66069;51.164;-114.452;2023-10-09T00:09:34;2.85;;;1.10;;
65018;SDS011;66069;51.164;-114.452;2023-10-09T00:12:20;3.83;;;0.90;;
65018;SDS011;66069;51.164;-114.452;2023-10-09T00:14:51;2.13;;;0.90;;
65018;SDS011;66069;51.164;-114.452;2023-10-09T00:17:36;2.28;;;0.80;;
65018;SDS011;66069;51.164;-114.452;2023-10-09T00:20:03;2.25;;;1.00;;
65018;SDS011;66069;51.164;-114.452;2023-10-09T00:22:42;2.85;;;0.90;;
65018;SDS011;66069;51.164;-114.452;2023-10-09T00:25:11;2.50;;;0.90;;
65018;SDS011;66069;51.164;-114.452;2023-10-09T00:27:38;2.35;;;0.85;;
65018;SDS011;66069;51.164;-114.452;2023-10-09T00:30:11;3.25;;;1.25;;
65018;SDS011;66069;51.164;-114.452;2023-10-09T00:32:57;4.40;;;1.17;;
65018;SDS011;66069;51.164;-114.452;2023-10-09T00:35:31;2.75;;;1.10;;
65018;SDS011;66069;51.164;-114.452;2023-10-09T00:38:05;2.25;;;0.80;;
65018;SDS011;66069;51.164;-114.452;2023-10-09T00:40:38;3.00;;;1.48;;
65018;SDS011;66069;51.164;-114.452;2023-10-09T00:43:11;2.75;;;1.23;;
65018;SDS011;66069;51.164;-114.452;2023-10-09T00:45:39;2.15;;;1.10;;
65018;SDS011;66069;51.164;-114.452;2023-10-09T00:48:09;3.88;;;1.40;;
65018;SDS011;66069;51.164;-114.452;2023-10-09T00:50:35;3.58;;;1.10;;
65018;SDS011;66069;51.164;-114.452;2023-10-09T00:53:01;3.17;;;1.05;;
65018;SDS011;66069;51.164;-114.452;2023-10-09T00:55:31;2.38;;;0.90;;
65018;SDS011;66069;51.164;-114.452;2023-10-09T00:58:09;2.67;;;1.10;;
65018;SDS011;66069;51.164;-114.452;2023-10-09T01:00:40;3.22;;;1.10;;
65018;SDS011;66069;51.164;-114.452;2023-10-09T01:03:09;2.80;;;1.00;;
65018;SDS011;66069;51.164;-114.452;2023-10-09T01:05:57;2.00;;;0.90;;
65018;SDS011;66069;51.164;-114.452;2023-10-09T01:08:26;2.58;;;1.00;;
65018;SDS011;66069;51.164;-114.452;2023-10-09T01:11:01;2.55;;;1.42;;
65018;SDS011;66069;51.164;-114.452;2023-10-09T01:13:40;3.17;;;1.20;;
65018;SDS011;66069;51.164;-114.452;2023-10-09T01:16:12;4.63;;;1.33;;
65018;SDS011;66069;51.164;-114.452;2023-10-09T01:18:42;2.97;;;1.23;;
65018;SDS011;66069;51.164;-114.452;2023-10-09T01:21:11;2.53;;;1.02;;
65018;SDS011;66069;51.164;-114.452;2023-10-09T01:23:41;3.03;;;1.15;;
65018;SDS011;66069;51.164;-114.452;2023-10-09T01:26:24;2.47;;;1.00;;
65018;SDS011;66069;51.164;-114.452;2023-10-09T01:28:50;2.83;;;1.10;;
65018;SDS011;66069;51.164;-114.452;2023-10-09T01:31:16;1.80;;;0.90;;
65018;SDS011;66069;51.164;-114.452;2023-10-09T01:33:46;2.67;;;1.02;;
65018;SDS011;66069;51.164;-114.452;2023-10-09T01:36:12;2.55;;;1.20;;
65018;SDS011;66069;51.164;-114.452;2023-10-09T01:38:40;2.00;;;0.95;;
65018;SDS011;66069;51.164;-114.452;2023-10-09T01:41:15;2.60;;;0.90;;
65018;SDS011;66069;51.164;-114.452;2023-10-09T01:43:45;1.80;;;0.80;;
65018;SDS011;66069;51.164;-114.452;2023-10-09T01:46:11;2.10;;;1.10;;
65018;SDS011;66069;51.164;-114.452;2023-10-09T01:48:37;2.70;;;1.00;;
65018;SDS011;66069;51.164;-114.452;2023-10-09T01:51:12;2.23;;;1.10;;
65018;SDS011;66069;51.164;-114.452;2023-10-09T01:53:38;2.47;;;0.90;;
65018;SDS011;66069;51.164;-114.452;2023-10-09T01:56:08;2.10;;;1.00;;
65018;SDS011;66069;51.164;-114.452;2023-10-09T01:58:34;3.65;;;1.30;;
65018;SDS011;66069;51.164;-114.452;2023-10-09T02:01:00;1.52;;;0.95;;
65018;SDS011;66069;51.164;-114.452;2023-10-09T02:03:30;3.05;;;1.00;;
65018;SDS011;66069;51.164;-114.452;2023-10-09T02:05:56;2.15;;;1.05;;
65018;SDS011;66069;51.164;-114.452;2023-10-09T02:08:25;1.85;;;1.00;;
65018;SDS011;66069;51.164;-114.452;2023-10-09T02:10:55;1.55;;;0.90;;
65018;SDS011;66069;51.164;-114.452;2023-10-09T02:13:22;2.15;;;1.20;;
65018;SDS011;66069;51.164;-114.452;2023-10-09T02:15:57;2.53;;;1.25;;
65018;SDS011;66069;51.164;-114.452;2023-10-09T02:18:39;2.25;;;0.90;;
65018;SDS011;66069;51.164;-114.452;2023-10-09T02:21:18;3.10;;;1.08;;
65018;SDS011;66069;51.164;-114.452;2023-10-09T02:23:54;3.08;;;1.10;;
65018;SDS011;66069;51.164;-114.452;2023-10-09T02:26:22;3.33;;;0.90;;
65018;SDS011;66069;51.164;-114.452;2023-10-09T02:28:55;2.25;;;0.95;;
65018;SDS011;66069;51.164;-114.452;2023-10-09T02:31:24;2.28;;;1.00;;
65018;SDS011;66069;51.164;-114.452;2023-10-09T02:33:53;2.03;;;0.85;;
65018;SDS011;66069;51.164;-114.452;2023-10-09T02:36:21;1.98;;;0.80;;
65018;SDS011;66069;51.164;-114.452;2023-10-09T02:38:47;1.95;;;0.90;;
65018;SDS011;66069;51.164;-114.452;2023-10-09T02:41:15;2.15;;;1.10;;
65018;SDS011;66069;51.164;-114.452;2023-10-09T02:43:41;1.83;;;1.00;;
65018;SDS011;66069;51.164;-114.452;2023-10-09T02:46:13;2.40;;;0.80;;
65018;SDS011;66069;51.164;-114.452;2023-10-09T02:48:49;2.42;;;0.95;;
65018;SDS011;66069;51.164;-114.452;2023-10-09T02:51:18;2.28;;;1.10;;
65018;SDS011;66069;51.164;-114.452;2023-10-09T02:53:53;1.77;;;0.90;;
65018;SDS011;66069;51.164;-114.452;2023-10-09T02:56:21;2.03;;;0.90;;
65018;SDS011;66069;51.164;-114.452;2023-10-09T02:58:56;2.28;;;1.00;;
65018;SDS011;66069;51.164;-114.452;2023-10-09T03:01:34;2.22;;;0.95;;
65018;SDS011;66069;51.164;-114.452;2023-10-09T03:04:06;1.88;;;1.00;;
65018;SDS011;66069;51.164;-114.452;2023-10-09T03:06:36;2.10;;;0.90;;
65018;SDS011;66069;51.164;-114.452;2023-10-09T03:09:18;2.15;;;0.95;;
65018;SDS011;66069;51.164;-114.452;2023-10-09T03:11:48;2.13;;;0.93;;
65018;SDS011;66069;51.164;-114.452;2023-10-09T03:14:21;1.83;;;0.70;;
65018;SDS011;66069;51.164;-114.452;2023-10-09T03:16:55;2.00;;;0.77;;
65018;SDS011;66069;51.164;-114.452;2023-10-09T03:19:31;2.13;;;0.88;;
65018;SDS011;66069;51.164;-114.452;2023-10-09T03:22:11;2.25;;;0.85;;
65018;SDS011;66069;51.164;-114.452;2023-10-09T03:24:37;2.13;;;0.88;;
65018;SDS011;66069;51.164;-114.452;2023-10-09T03:27:06;1.63;;;0.82;;
65018;SDS011;66069;51.164;-114.452;2023-10-09T03:29:32;1.95;;;0.90;;
65018;SDS011;66069;51.164;-114.452;2023-10-09T03:31:58;2.28;;;0.70;;
65018;SDS011;66069;51.164;-114.452;2023-10-09T03:34:25;1.63;;;0.77;;
65018;SDS011;66069;51.164;-114.452;2023-10-09T03:36:51;1.30;;;0.80;;
65018;SDS011;66069;51.164;-114.452;2023-10-09T03:39:30;2.35;;;1.00;;
65018;SDS011;66069;51.164;-114.452;2023-10-09T03:42:04;2.00;;;0.75;;
65018;SDS011;66069;51.164;-114.452;2023-10-09T03:44:33;1.50;;;0.80;;
65018;SDS011;66069;51.164;-114.452;2023-10-09T03:46:59;2.40;;;0.75;;
65018;SDS011;66069;51.164;-114.452;2023-10-09T03:49:27;2.35;;;0.80;;
65018;SDS011;66069;51.164;-114.452;2023-10-09T03:51:54;1.98;;;0.82;;
65018;SDS011;66069;51.164;-114.452;2023-10-09T03:54:20;2.35;;;1.05;;
65018;SDS011;66069;51.164;-114.452;2023-10-09T03:56:48;2.47;;;1.00;;
65018;SDS011;66069;51.164;-114.452;2023-10-09T03:59:18;2.47;;;0.77;;
65018;SDS011;66069;51.164;-114.452;2023-10-09T04:01:47;1.85;;;0.80;;
65018;SDS011;66069;51.164;-114.452;2023-10-09T04:04:18;1.83;;;0.80;;
65018;SDS011;66069;51.164;-114.452;2023-10-09T04:06:48;2.22;;;1.15;;
65018;SDS011;66069;51.164;-114.452;2023-10-09T04:09:14;1.70;;;0.90;;
65018;SDS011;66069;51.164;-114.452;2023-10-09T04:11:43;2.25;;;0.95;;
65018;SDS011;66069;51.164;-114.452;2023-10-09T04:14:11;1.30;;;0.70;;
65018;SDS011;66069;51.164;-114.452;2023-10-09T04:16:39;1.25;;;0.70;;
65018;SDS011;66069;51.164;-114.452;2023-10-09T04:19:25;2.30;;;1.30;;
65018;SDS011;66069;51.164;-114.452;2023-10-09T04:21:51;1.80;;;0.82;;
65018;SDS011;66069;51.164;-114.452;2023-10-09T04:24:20;2.35;;;0.82;;
65018;SDS011;66069;51.164;-114.452;2023-10-09T04:26:46;2.10;;;0.82;;
65018;SDS011;66069;51.164;-114.452;2023-10-09T04:29:13;2.00;;;0.70;;
65018;SDS011;66069;51.164;-114.452;2023-10-09T04:32:14;2.17;;;0.98;;
65018;SDS011;66069;51.164;-114.452;2023-10-09T04:34:43;1.75;;;0.70;;
65018;SDS011;66069;51.164;-114.452;2023-10-09T04:37:29;1.73;;;0.80;;
65018;SDS011;66069;51.164;-114.452;2023-10-09T04:40:04;1.73;;;0.80;;
65018;SDS011;66069;51.164;-114.452;2023-10-09T04:42:56;1.27;;;0.60;;
65018;SDS011;66069;51.164;-114.452;2023-10-09T04:45:24;1.60;;;0.88;;
65018;SDS011;66069;51.164;-114.452;2023-10-09T04:48:09;2.33;;;1.00;;
65018;SDS011;66069;51.164;-114.452;2023-10-09T04:50:35;2.83;;;1.00;;
65018;SDS011;66069;51.164;-114.452;2023-10-09T04:53:01;1.95;;;0.80;;
65018;SDS011;66069;51.164;-114.452;2023-10-09T04:55:50;2.45;;;1.00;;
65018;SDS011;66069;51.164;-114.452;2023-10-09T04:58:25;1.63;;;0.80;;
65018;SDS011;66069;51.164;-114.452;2023-10-09T05:00:52;1.67;;;0.70;;
65018;SDS011;66069;51.164;-114.452;2023-10-09T05:03:24;1.83;;;0.93;;
65018;SDS011;66069;51.164;-114.452;2023-10-09T05:05:53;1.88;;;0.82;;
65018;SDS011;66069;51.164;-114.452;2023-10-09T05:08:27;1.27;;;0.70;;
65018;SDS011;66069;51.164;-114.452;2023-10-09T05:10:53;1.63;;;0.75;;
65018;SDS011;66069;51.164;-114.452;2023-10-09T05:13:26;1.48;;;0.70;;
65018;SDS011;66069;51.164;-114.452;2023-10-09T05:16:17;1.67;;;0.90;;
65018;SDS011;66069;51.164;-114.452;2023-10-09T05:18:58;1.27;;;0.70;;
65018;SDS011;66069;51.164;-114.452;2023-10-09T05:21:35;1.42;;;0.90;;
65018;SDS011;66069;51.164;-114.452;2023-10-09T05:24:02;1.90;;;1.10;;
65018;SDS011;66069;51.164;-114.452;2023-10-09T05:26:47;2.25;;;0.80;;
65018;SDS011;66069;51.164;-114.452;2023-10-09T05:29:14;1.25;;;0.60;;
65018;SDS011;66069;51.164;-114.452;2023-10-09T05:31:58;1.83;;;0.90;;
65018;SDS011;66069;51.164;-114.452;2023-10-09T05:34:33;1.30;;;0.65;;
65018;SDS011;66069;51.164;-114.452;2023-10-09T05:37:03;1.80;;;0.70;;
65018;SDS011;66069;51.164;-114.452;2023-10-09T05:42:28;1.90;;;0.73;;
65018;SDS011;66069;51.164;-114.452;2023-10-09T05:45:06;1.33;;;0.60;;
65018;SDS011;66069;51.164;-114.452;2023-10-09T05:47:34;1.25;;;0.70;;
65018;SDS011;66069;51.164;-114.452;2023-10-09T05:50:00;0.98;;;0.60;;
65018;SDS011;66069;51.164;-114.452;2023-10-09T05:52:35;1.63;;;0.73;;
65018;SDS011;66069;51.164;-114.452;2023-10-09T05:55:04;1.85;;;0.77;;
65018;SDS011;66069;51.164;-114.452;2023-10-09T05:58:04;1.77;;;0.80;;
65018;SDS011;66069;51.164;-114.452;2023-10-09T06:00:50;1.67;;;0.80;;
65018;SDS011;66069;51.164;-114.452;2023-10-09T06:03:34;1.40;;;0.75;;
65018;SDS011;66069;51.164;-114.452;2023-10-09T06:06:19;1.40;;;0.70;;
65018;SDS011;66069;51.164;-114.452;2023-10-09T06:09:04;2.00;;;0.90;;
65018;SDS011;66069;51.164;-114.452;2023-10-09T06:11:49;1.85;;;0.80;;
65018;SDS011;66069;51.164;-114.452;2023-10-09T06:14:20;1.75;;;0.60;;
65018;SDS011;66069;51.164;-114.452;2023-10-09T06:16:55;1.33;;;0.70;;
65018;SDS011;66069;51.164;-114.452;2023-10-09T06:19:47;1.60;;;0.70;;
65018;SDS011;66069;51.164;-114.452;2023-10-09T06:22:14;1.42;;;0.57;;
65018;SDS011;66069;51.164;-114.452;2023-10-09T06:24:58;1.63;;;0.77;;
65018;SDS011;66069;51.164;-114.452;2023-10-09T06:27:34;1.90;;;0.73;;
65018;SDS011;66069;51.164;-114.452;2023-10-09T06:30:00;2.20;;;0.90;;
65018;SDS011;66069;51.164;-114.452;2023-10-09T06:32:44;1.13;;;0.65;;
65018;SDS011;66069;51.164;-114.452;2023-10-09T06:35:28;1.50;;;0.60;;
65018;SDS011;66069;51.164;-114.452;2023-10-09T06:38:00;1.35;;;0.60;;
65018;SDS011;66069;51.164;-114.452;2023-10-09T06:40:33;1.42;;;0.98;;
65018;SDS011;66069;51.164;-114.452;2023-10-09T06:43:18;1.45;;;0.70;;
65018;SDS011;66069;51.164;-114.452;2023-10-09T06:45:47;1.80;;;0.70;;
65018;SDS011;66069;51.164;-114.452;2023-10-09T06:48:34;2.15;;;0.88;;
65018;SDS011;66069;51.164;-114.452;2023-10-09T06:51:06;1.17;;;0.63;;
65018;SDS011;66069;51.164;-114.452;2023-10-09T06:53:54;1.65;;;0.75;;
65018;SDS011;66069;51.164;-114.452;2023-10-09T06:56:20;1.52;;;0.80;;
65018;SDS011;66069;51.164;-114.452;2023-10-09T06:58:49;1.27;;;0.60;;
65018;SDS011;66069;51.164;-114.452;2023-10-09T07:01:23;1.58;;;0.75;;
65018;SDS011;66069;51.164;-114.452;2023-10-09T07:04:08;1.35;;;0.60;;
65018;SDS011;66069;51.164;-114.452;2023-10-09T07:07:06;1.60;;;0.65;;
65018;SDS011;66069;51.164;-114.452;2023-10-09T07:09:48;1.90;;;0.70;;
65018;SDS011;66069;51.164;-114.452;2023-10-09T07:12:32;1.23;;;0.60;;
65018;SDS011;66069;51.164;-114.452;2023-10-09T07:15:01;1.35;;;0.60;;
65018;SDS011;66069;51.164;-114.452;2023-10-09T07:17:47;1.35;;;0.70;;
65018;SDS011;66069;51.164;-114.452;2023-10-09T07:20:17;1.00;;;0.43;;
65018;SDS011;66069;51.164;-114.452;2023-10-09T07:23:02;1.02;;;0.60;;
65018;SDS011;66069;51.164;-114.452;2023-10-09T07:25:41;1.27;;;0.60;;
65018;SDS011;66069;51.164;-114.452;2023-10-09T07:28:21;1.42;;;0.60;;
65018;SDS011;66069;51.164;-114.452;2023-10-09T07:31:02;1.80;;;0.70;;
65018;SDS011;66069;51.164;-114.452;2023-10-09T07:33:28;1.33;;;0.70;;
65018;SDS011;66069;51.164;-114.452;2023-10-09T07:36:17;0.65;;;0.50;;
65018;SDS011;66069;51.164;-114.452;2023-10-09T07:38:55;1.55;;;0.90;;
65018;SDS011;66069;51.164;-114.452;2023-10-09T07:41:21;1.58;;;0.60;;
65018;SDS011;66069;51.164;-114.452;2023-10-09T07:43:46;1.23;;;0.60;;
65018;SDS011;66069;51.164;-114.452;2023-10-09T07:46:16;1.33;;;0.77;;
65018;SDS011;66069;51.164;-114.452;2023-10-09T07:49:17;1.25;;;0.60;;
65018;SDS011;66069;51.164;-114.452;2023-10-09T07:51:50;1.15;;;0.65;;
65018;SDS011;66069;51.164;-114.452;2023-10-09T07:54:20;1.40;;;0.65;;
65018;SDS011;66069;51.164;-114.452;2023-10-09T07:56:59;1.20;;;0.60;;
65018;SDS011;66069;51.164;-114.452;2023-10-09T07:59:41;1.50;;;0.60;;
65018;SDS011;66069;51.164;-114.452;2023-10-09T08:02:31;1.08;;;0.50;;
65018;SDS011;66069;51.164;-114.452;2023-10-09T08:05:00;1.05;;;0.68;;
65018;SDS011;66069;51.164;-114.452;2023-10-09T08:07:32;1.67;;;0.68;;
65018;SDS011;66069;51.164;-114.452;2023-10-09T08:10:02;1.02;;;0.50;;
65018;SDS011;66069;51.164;-114.452;2023-10-09T08:12:43;1.40;;;0.60;;
65018;SDS011;66069;51.164;-114.452;2023-10-09T08:15:18;1.02;;;0.50;;
65018;SDS011;66069;51.164;-114.452;2023-10-09T08:17:56;1.27;;;0.70;;
65018;SDS011;66069;51.164;-114.452;2023-10-09T08:20:53;1.42;;;0.70;;
65018;SDS011;66069;51.164;-114.452;2023-10-09T08:23:22;1.38;;;0.70;;
65018;SDS011;66069;51.164;-114.452;2023-10-09T08:26:08;0.93;;;0.52;;
65018;SDS011;66069;51.164;-114.452;2023-10-09T08:28:41;1.23;;;0.60;;
65018;SDS011;66069;51.164;-114.452;2023-10-09T08:31:11;1.05;;;0.55;;
65018;SDS011;66069;51.164;-114.452;2023-10-09T08:33:55;1.23;;;0.50;;
65018;SDS011;66069;51.164;-114.452;2023-10-09T08:36:27;1.20;;;0.70;;
65018;SDS011;66069;51.164;-114.452;2023-10-09T08:38:56;1.00;;;0.70;;
65018;SDS011;66069;51.164;-114.452;2023-10-09T08:41:33;1.17;;;0.53;;
65018;SDS011;66069;51.164;-114.452;2023-10-09T08:43:59;1.58;;;0.60;;
65018;SDS011;66069;51.164;-114.452;2023-10-09T08:46:26;0.88;;;0.50;;
65018;SDS011;66069;51.164;-114.452;2023-10-09T08:48:56;1.20;;;0.63;;
65018;SDS011;66069;51.164;-114.452;2023-10-09T08:51:23;1.70;;;0.80;;
65018;SDS011;66069;51.164;-114.452;2023-10-09T08:53:50;1.70;;;0.80;;
65018;SDS011;66069;51.164;-114.452;2023-10-09T08:56:20;1.08;;;0.63;;
65018;SDS011;66069;51.164;-114.452;2023-10-09T08:59:06;0.97;;;0.60;;
65018;SDS011;66069;51.164;-114.452;2023-10-09T09:01:32;1.75;;;0.77;;
65018;SDS011;66069;51.164;-114.452;2023-10-09T09:03:59;0.90;;;0.57;;
65018;SDS011;66069;51.164;-114.452;2023-10-09T09:06:35;1.10;;;0.60;;
65018;SDS011;66069;51.164;-114.452;2023-10-09T09:09:09;1.13;;;0.60;;
65018;SDS011;66069;51.164;-114.452;2023-10-09T09:11:42;1.70;;;0.70;;
65018;SDS011;66069;51.164;-114.452;2023-10-09T09:14:38;1.02;;;0.55;;
65018;SDS011;66069;51.164;-114.452;2023-10-09T09:17:06;1.33;;;0.70;;
65018;SDS011;66069;51.164;-114.452;2023-10-09T09:19:36;1.17;;;0.60;;
65018;SDS011;66069;51.164;-114.452;2023-10-09T09:22:03;1.23;;;0.70;;
65018;SDS011;66069;51.164;-114.452;2023-10-09T09:24:40;1.15;;;0.50;;
65018;SDS011;66069;51.164;-114.452;2023-10-09T09:27:13;1.27;;;0.70;;
65018;SDS011;66069;51.164;-114.452;2023-10-09T09:29:43;0.93;;;0.40;;
65018;SDS011;66069;51.164;-114.452;2023-10-09T09:32:26;1.25;;;0.60;;
65018;SDS011;66069;51.164;-114.452;2023-10-09T09:34:55;1.35;;;0.60;;
65018;SDS011;66069;51.164;-114.452;2023-10-09T09:37:27;1.70;;;0.68;;
65018;SDS011;66069;51.164;-114.452;2023-10-09T09:39:58;1.02;;;0.60;;
65018;SDS011;66069;51.164;-114.452;2023-10-09T09:42:26;1.83;;;0.60;;
65018;SDS011;66069;51.164;-114.452;2023-10-09T09:44:53;0.98;;;0.55;;
65018;SDS011;66069;51.164;-114.452;2023-10-09T09:47:19;1.27;;;0.55;;
65018;SDS011;66069;51.164;-114.452;2023-10-09T09:49:55;1.45;;;0.47;;
65018;SDS011;66069;51.164;-114.452;2023-10-09T09:52:37;0.93;;;0.50;;
65018;SDS011;66069;51.164;-114.452;2023-10-09T09:55:09;1.77;;;0.75;;
65018;SDS011;66069;51.164;-114.452;2023-10-09T09:57:48;1.30;;;0.60;;
65018;SDS011;66069;51.164;-114.452;2023-10-09T10:00:20;1.45;;;0.70;;
65018;SDS011;66069;51.164;-114.452;2023-10-09T10:03:09;1.27;;;0.57;;
65018;SDS011;66069;51.164;-114.452;2023-10-09T10:05:36;1.90;;;0.80;;
65018;SDS011;66069;51.164;-114.452;2023-10-09T10:08:03;1.52;;;0.60;;
65018;SDS011;66069;51.164;-114.452;2023-10-09T10:10:40;1.35;;;0.70;;
65018;SDS011;66069;51.164;-114.452;2023-10-09T10:16:10;0.90;;;0.50;;
65018;SDS011;66069;51.164;-114.452;2023-10-09T10:19:02;1.48;;;0.60;;
65018;SDS011;66069;51.164;-114.452;2023-10-09T10:21:44;1.52;;;0.65;;
65018;SDS011;66069;51.164;-114.452;2023-10-09T10:27:17;0.80;;;0.50;;
65018;SDS011;66069;51.164;-114.452;2023-10-09T10:30:34;1.17;;;0.70;;
65018;SDS011;66069;51.164;-114.452;2023-10-09T10:35:18;1.13;;;0.50;;
65018;SDS011;66069;51.164;-114.452;2023-10-09T10:38:21;1.48;;;0.57;;
65018;SDS011;66069;51.164;-114.452;2023-10-09T10:40:47;1.05;;;0.50;;
65018;SDS011;66069;51.164;-114.452;2023-10-09T10:43:23;1.20;;;0.50;;
65018;SDS011;66069;51.164;-114.452;2023-10-09T10:48:36;1.02;;;0.55;;
65018;SDS011;66069;51.164;-114.452;2023-10-09T10:51:05;3.50;;;0.82;;
65018;SDS011;66069;51.164;-114.452;2023-10-09T10:53:31;1.25;;;0.70;;
65018;SDS011;66069;51.164;-114.452;2023-10-09T10:56:18;1.40;;;0.60;;
65018;SDS011;66069;51.164;-114.452;2023-10-09T10:58:54;1.30;;;0.70;;
65018;SDS011;66069;51.164;-114.452;2023-10-09T11:01:37;1.30;;;0.70;;
65018;SDS011;66069;51.164;-114.452;2023-10-09T11:04:22;1.30;;;0.68;;
65018;SDS011;66069;51.164;-114.452;2023-10-09T11:07:04;1.08;;;0.50;;
65018;SDS011;66069;51.164;-114.452;2023-10-09T11:10:02;1.50;;;0.70;;
65018;SDS011;66069;51.164;-114.452;2023-10-09T11:15:15;1.17;;;0.50;;
65018;SDS011;66069;51.164;-114.452;2023-10-09T11:18:00;1.05;;;0.50;;
65018;SDS011;66069;51.164;-114.452;2023-10-09T11:20:42;1.00;;;0.50;;
65018;SDS011;66069;51.164;-114.452;2023-10-09T11:23:21;0.40;;;0.40;;
65018;SDS011;66069;51.164;-114.452;2023-10-09T11:25:55;0.93;;;0.50;;
65018;SDS011;66069;51.164;-114.452;2023-10-09T11:28:41;1.00;;;0.60;;
65018;SDS011;66069;51.164;-114.452;2023-10-09T11:31:24;1.10;;;0.57;;
65018;SDS011;66069;51.164;-114.452;2023-10-09T11:33:51;1.33;;;0.63;;
65018;SDS011;66069;51.164;-114.452;2023-10-09T11:36:23;1.42;;;0.60;;
65018;SDS011;66069;51.164;-114.452;2023-10-09T11:38:58;1.38;;;0.60;;
65018;SDS011;66069;51.164;-114.452;2023-10-09T11:41:44;1.15;;;0.70;;
65018;SDS011;66069;51.164;-114.452;2023-10-09T11:44:10;1.45;;;0.73;;
65018;SDS011;66069;51.164;-114.452;2023-10-09T11:47:01;1.05;;;0.50;;
65018;SDS011;66069;51.164;-114.452;2023-10-09T11:49:55;0.65;;;0.55;;
65018;SDS011;66069;51.164;-114.452;2023-10-09T11:52:27;1.00;;;0.50;;
65018;SDS011;66069;51.164;-114.452;2023-10-09T11:55:21;1.02;;;0.50;;
65018;SDS011;66069;51.164;-114.452;2023-10-09T11:57:51;1.20;;;0.50;;
65018;SDS011;66069;51.164;-114.452;2023-10-09T12:00:17;1.02;;;0.50;;
65018;SDS011;66069;51.164;-114.452;2023-10-09T12:02:55;0.50;;;0.40;;
65018;SDS011;66069;51.164;-114.452;2023-10-09T12:05:21;1.33;;;0.63;;
65018;SDS011;66069;51.164;-114.452;2023-10-09T12:07:48;0.90;;;0.50;;
65018;SDS011;66069;51.164;-114.452;2023-10-09T12:10:26;1.13;;;0.50;;
65018;SDS011;66069;51.164;-114.452;2023-10-09T12:12:53;1.08;;;0.60;;
65018;SDS011;66069;51.164;-114.452;2023-10-09T12:15:19;1.00;;;0.55;;
65018;SDS011;66069;51.164;-114.452;2023-10-09T12:17:46;1.30;;;0.60;;
65018;SDS011;66069;51.164;-114.452;2023-10-09T12:20:15;0.82;;;0.40;;
65018;SDS011;66069;51.164;-114.452;2023-10-09T12:23:00;1.13;;;0.60;;
65018;SDS011;66069;51.164;-114.452;2023-10-09T12:25:26;1.02;;;0.50;;
65018;SDS011;66069;51.164;-114.452;2023-10-09T12:27:56;1.20;;;0.70;;
65018;SDS011;66069;51.164;-114.452;2023-10-09T12:30:25;0.82;;;0.50;;
65018;SDS011;66069;51.164;-114.452;2023-10-09T12:32:54;0.77;;;0.50;;
65018;SDS011;66069;51.164;-114.452;2023-10-09T12:35:20;1.25;;;0.60;;
65018;SDS011;66069;51.164;-114.452;2023-10-09T12:37:46;0.90;;;0.60;;
65018;SDS011;66069;51.164;-114.452;2023-10-09T12:40:12;0.90;;;0.50;;
65018;SDS011;66069;51.164;-114.452;2023-10-09T12:42:38;0.47;;;0.40;;
65018;SDS011;66069;51.164;-114.452;2023-10-09T12:45:06;1.08;;;0.52;;
65018;SDS011;66069;51.164;-114.452;2023-10-09T12:47:35;0.63;;;0.40;;
65018;SDS011;66069;51.164;-114.452;2023-10-09T12:50:04;1.33;;;0.60;;
65018;SDS011;66069;51.164;-114.452;2023-10-09T12:52:35;0.75;;;0.50;;
65018;SDS011;66069;51.164;-114.452;2023-10-09T12:55:03;1.67;;;0.57;;
65018;SDS011;66069;51.164;-114.452;2023-10-09T12:57:35;1.73;;;0.50;;
65018;SDS011;66069;51.164;-114.452;2023-10-09T13:00:02;0.90;;;0.50;;
65018;SDS011;66069;51.164;-114.452;2023-10-09T13:02:36;1.48;;;0.63;;
65018;SDS011;66069;51.164;-114.452;2023-10-09T13:05:02;1.00;;;0.60;;
65018;SDS011;66069;51.164;-114.452;2023-10-09T13:07:30;1.20;;;0.50;;
65018;SDS011;66069;51.164;-114.452;2023-10-09T13:09:56;1.40;;;0.70;;
65018;SDS011;66069;51.164;-114.452;2023-10-09T13:12:34;0.88;;;0.50;;
65018;SDS011;66069;51.164;-114.452;2023-10-09T13:15:07;1.15;;;0.60;;
65018;SDS011;66069;51.164;-114.452;2023-10-09T13:17:36;0.88;;;0.60;;
65018;SDS011;66069;51.164;-114.452;2023-10-09T13:20:03;1.00;;;0.50;;
65018;SDS011;66069;51.164;-114.452;2023-10-09T13:22:42;1.83;;;0.80;;
65018;SDS011;66069;51.164;-114.452;2023-10-09T13:25:09;0.93;;;0.45;;
65018;SDS011;66069;51.164;-114.452;2023-10-09T13:27:42;1.08;;;0.60;;
65018;SDS011;66069;51.164;-114.452;2023-10-09T13:30:08;0.73;;;0.40;;
65018;SDS011;66069;51.164;-114.452;2023-10-09T13:32:35;1.45;;;0.75;;
65018;SDS011;66069;51.164;-114.452;2023-10-09T13:35:02;1.00;;;0.70;;
65018;SDS011;66069;51.164;-114.452;2023-10-09T13:37:31;0.93;;;0.50;;
65018;SDS011;66069;51.164;-114.452;2023-10-09T13:40:04;0.90;;;0.55;;
65018;SDS011;66069;51.164;-114.452;2023-10-09T13:42:35;1.20;;;0.70;;
65018;SDS011;66069;51.164;-114.452;2023-10-09T13:45:04;1.20;;;0.60;;
65018;SDS011;66069;51.164;-114.452;2023-10-09T13:47:41;1.08;;;0.60;;
65018;SDS011;66069;51.164;-114.452;2023-10-09T13:50:09;1.23;;;0.60;;
65018;SDS011;66069;51.164;-114.452;2023-10-09T13:52:35;0.75;;;0.50;;
65018;SDS011;66069;51.164;-114.452;2023-10-09T13:55:05;1.75;;;0.63;;
65018;SDS011;66069;51.164;-114.452;2023-10-09T13:57:40;1.30;;;0.60;;
65018;SDS011;66069;51.164;-114.452;2023-10-09T14:00:08;1.38;;;0.52;;
65018;SDS011;66069;51.164;-114.452;2023-10-09T14:02:36;1.08;;;0.60;;
65018;SDS011;66069;51.164;-114.452;2023-10-09T14:05:02;1.27;;;0.60;;
65018;SDS011;66069;51.164;-114.452;2023-10-09T14:07:29;0.75;;;0.50;;
65018;SDS011;66069;51.164;-114.452;2023-10-09T14:09:56;0.98;;;0.55;;
65018;SDS011;66069;51.164;-114.452;2023-10-09T14:12:32;0.95;;;0.50;;
65018;SDS011;66069;51.164;-114.452;2023-10-09T14:14:59;1.15;;;0.40;;
65018;SDS011;66069;51.164;-114.452;2023-10-09T14:17:28;0.80;;;0.50;;
65018;SDS011;66069;51.164;-114.452;2023-10-09T14:19:55;1.30;;;0.70;;
65018;SDS011;66069;51.164;-114.452;2023-10-09T14:22:26;1.17;;;0.50;;
65018;SDS011;66069;51.164;-114.452;2023-10-09T14:24:53;1.13;;;0.60;;
65018;SDS011;66069;51.164;-114.452;2023-10-09T14:27:25;0.93;;;0.50;;
65018;SDS011;66069;51.164;-114.452;2023-10-09T14:32:21;1.25;;;0.60;;
65018;SDS011;66069;51.164;-114.452;2023-10-09T14:34:54;0.73;;;0.50;;
65018;SDS011;66069;51.164;-114.452;2023-10-09T14:37:20;1.48;;;0.65;;
65018;SDS011;66069;51.164;-114.452;2023-10-09T14:39:46;1.10;;;0.60;;
65018;SDS011;66069;51.164;-114.452;2023-10-09T14:42:16;1.05;;;0.52;;
65018;SDS011;66069;51.164;-114.452;2023-10-09T14:44:42;1.33;;;0.65;;
65018;SDS011;66069;51.164;-114.452;2023-10-09T14:47:10;1.77;;;0.85;;
65018;SDS011;66069;51.164;-114.452;2023-10-09T14:49:36;1.10;;;0.50;;
65018;SDS011;66069;51.164;-114.452;2023-10-09T14:52:25;1.23;;;0.68;;
65018;SDS011;66069;51.164;-114.452;2023-10-09T14:54:52;1.08;;;0.60;;
65018;SDS011;66069;51.164;-114.452;2023-10-09T14:57:18;0.80;;;0.50;;
65018;SDS011;66069;51.164;-114.452;2023-10-09T14:59:44;1.13;;;0.65;;
65018;SDS011;66069;51.164;-114.452;2023-10-09T15:02:11;2.13;;;0.70;;
65018;SDS011;66069;51.164;-114.452;2023-10-09T15:04:40;1.52;;;0.50;;